Time;durP1;ratioP1;P1;durP2;ratioP2;P2;SDS_P1;SDS_P2;PMS_P1;PMS_P2;Temp;Humidity;BMP_temperature;BMP_pressure;BME280_temperature;BME280_humidity;BME280_pressure;Samples;Min_cycle;Max_cycle;Signal;HPM_P1;HPM_P2
2022/04/04 00:02:03;;;;;;;5.07;2.90;;;6.10;99.90;;;;;;5054548;28;20045;-61
2022/04/04 00:04:31;;;;;;;7.93;3.45;;;6.10;99.90;;;;;;5067931;28;20045;-62
2022/04/04 00:07:02;;;;;;;11.07;4.10;;;6.10;99.90;;;;;;5060058;28;20045;-62
2022/04/04 00:09:30;;;;;;;7.63;3.72;;;6.10;99.90;;;;;;5067005;28;20052;-63
2022/04/04 00:11:58;;;;;;;5.82;3.28;;;6.10;99.90;;;;;;5069077;28;20052;-61
2022/04/04 00:14:25;;;;;;;6.38;3.38;;;6.10;99.90;;;;;;5066208;28;20512;-62
2022/04/04 00:16:53;;;;;;;11.90;3.60;;;6.10;99.90;;;;;;5051008;28;20060;-63
2022/04/04 00:19:22;;;;;;;6.32;3.47;;;6.10;99.90;;;;;;5069034;28;20060;-63
2022/04/04 00:21:50;;;;;;;6.33;3.23;;;6.10;99.90;;;;;;5065207;28;20044;-63
2022/04/04 00:24:17;;;;;;;8.07;3.40;;;6.10;99.90;;;;;;5067512;28;20296;-63
2022/04/04 00:26:46;;;;;;;13.05;3.97;;;6.10;99.90;;;;;;5068991;28;20529;-63
2022/04/04 00:29:14;;;;;;;7.80;2.88;;;6.10;99.90;;;;;;5061299;28;20044;-62
2022/04/04 00:31:41;;;;;;;9.57;3.33;;;6.20;99.90;;;;;;5049393;28;20048;-62
2022/04/04 00:34:09;;;;;;;10.75;4.55;;;6.10;99.90;;;;;;5068738;28;20484;-62
2022/04/04 00:36:38;;;;;;;8.38;2.80;;;6.20;99.90;;;;;;5064552;28;20060;-62
2022/04/04 00:39:05;;;;;;;8.18;2.67;;;6.10;99.90;;;;;;5063341;28;20048;-63
2022/04/04 00:41:33;;;;;;;13.57;3.92;;;6.10;99.90;;;;;;5047096;28;20057;-65
2022/04/04 00:44:01;;;;;;;5.70;2.65;;;6.20;99.90;;;;;;5068309;28;20060;-63
2022/04/04 00:46:28;;;;;;;4.90;2.60;;;6.20;99.90;;;;;;5066597;28;20644;-64
2022/04/04 00:48:56;;;;;;;6.55;3.08;;;6.20;99.90;;;;;;5061731;28;20059;-63
2022/04/04 00:51:24;;;;;;;8.35;3.08;;;6.20;99.90;;;;;;5065767;28;20135;-66
2022/04/04 00:53:52;;;;;;;5.80;3.38;;;6.20;99.90;;;;;;5065048;28;20037;-63
2022/04/04 00:56:21;;;;;;;10.00;3.10;;;6.20;99.90;;;;;;5067212;28;20041;-62
2022/04/04 00:58:49;;;;;;;8.40;3.08;;;6.20;99.90;;;;;;5068402;28;20056;-62
2022/04/04 01:01:17;;;;;;;8.18;2.70;;;6.20;99.90;;;;;;5051073;28;20045;-62
2022/04/04 01:03:44;;;;;;;4.25;2.40;;;6.30;99.90;;;;;;5063385;28;20048;-63
2022/04/04 01:06:12;;;;;;;7.40;2.90;;;6.30;99.90;;;;;;5064798;28;20056;-62
2022/04/04 01:08:40;;;;;;;8.90;3.47;;;6.30;99.90;;;;;;5061861;28;20052;-62
2022/04/04 01:11:08;;;;;;;11.02;3.78;;;6.30;99.90;;;;;;5047072;28;20093;-62
2022/04/04 01:13:35;;;;;;;5.50;2.38;;;6.30;99.90;;;;;;5065530;28;20048;-62
2022/04/04 01:16:03;;;;;;;7.75;2.85;;;6.30;99.90;;;;;;5065948;28;20048;-63
2022/04/04 01:18:31;;;;;;;8.52;3.85;;;6.30;99.90;;;;;;5066792;28;20044;-62
2022/04/04 01:20:59;;;;;;;8.73;3.22;;;6.30;99.90;;;;;;5058711;28;20055;-61
2022/04/04 01:23:38;;;;;;;10.57;3.28;;;6.30;99.90;;;;;;5050384;28;20497;-63
2022/04/04 01:26:11;;;;;;;15.30;3.45;;;6.30;99.90;;;;;;5068253;28;20614;-62
2022/04/04 01:28:39;;;;;;;11.75;3.03;;;6.30;99.90;;;;;;5064059;28;20052;-63
2022/04/04 01:31:07;;;;;;;10.02;3.35;;;6.30;99.90;;;;;;5059077;28;20083;-62
2022/04/04 01:33:37;;;;;;;9.00;2.47;;;6.40;99.90;;;;;;5058806;28;20041;-61
2022/04/04 01:36:05;;;;;;;9.57;2.78;;;6.40;99.90;;;;;;5053314;28;20048;-62
2022/04/04 01:38:33;;;;;;;11.57;3.40;;;6.40;99.90;;;;;;5071235;28;20472;-61
2022/04/04 01:41:01;;;;;;;6.35;2.50;;;6.40;99.90;;;;;;5070621;28;20507;-62
2022/04/04 01:43:28;;;;;;;8.98;4.03;;;6.40;99.90;;;;;;5065800;28;20400;-61
2022/04/04 01:48:42;;;;;;;9.70;2.95;;;6.40;99.90;;;;;;5053799;28;20041;-61
2022/04/04 01:51:11;;;;;;;6.35;3.15;;;6.40;99.90;;;;;;5063985;28;20110;-61
2022/04/04 01:53:39;;;;;;;7.40;2.60;;;6.40;99.90;;;;;;5058783;28;20041;-61
2022/04/04 01:56:07;;;;;;;7.53;2.88;;;6.40;99.90;;;;;;5070798;28;20048;-61
2022/04/04 01:58:35;;;;;;;6.28;2.35;;;6.50;99.90;;;;;;5061585;28;20041;-64
2022/04/04 02:01:15;;;;;;;13.25;3.58;;;6.40;99.90;;;;;;5049898;28;20049;-61
2022/04/04 02:03:46;;;;;;;8.48;3.22;;;6.40;99.90;;;;;;5055462;28;20037;-63
2022/04/04 02:06:14;;;;;;;8.13;3.10;;;6.40;99.90;;;;;;5050934;28;20063;-62
2022/04/04 02:08:42;;;;;;;7.35;2.45;;;6.40;99.90;;;;;;5054914;28;20480;-60
2022/04/04 02:11:14;;;;;;;8.00;2.95;;;6.40;99.90;;;;;;5061321;28;20041;-62
2022/04/04 02:13:42;;;;;;;10.75;3.30;;;6.40;99.90;;;;;;5070611;28;20044;-62
2022/04/04 02:16:11;;;;;;;4.20;2.42;;;6.50;99.90;;;;;;5070931;28;20051;-62
2022/04/04 02:18:39;;;;;;;6.53;3.10;;;6.40;99.90;;;;;;5070702;28;20044;-62
2022/04/04 02:21:07;;;;;;;5.72;2.00;;;6.50;99.90;;;;;;5069104;28;20044;-65
2022/04/04 02:23:36;;;;;;;8.40;3.22;;;6.50;99.90;;;;;;5070471;28;20045;-64
2022/04/04 02:26:04;;;;;;;8.57;2.60;;;6.50;99.90;;;;;;5068867;28;20045;-63
2022/04/04 02:28:32;;;;;;;8.20;2.17;;;6.50;99.90;;;;;;5067449;28;20056;-63
2022/04/04 02:31:00;;;;;;;3.63;2.17;;;6.50;99.90;;;;;;5070645;28;20061;-62
2022/04/04 02:33:28;;;;;;;8.65;2.70;;;6.50;99.90;;;;;;5065131;28;20044;-64
2022/04/04 02:35:56;;;;;;;6.53;2.22;;;6.50;99.90;;;;;;5063039;28;20045;-63
2022/04/04 02:38:26;;;;;;;6.30;2.20;;;6.50;99.90;;;;;;5072519;28;20517;-62
2022/04/04 02:40:56;;;;;;;6.47;1.98;;;6.50;99.90;;;;;;5061075;28;20060;-62
2022/04/04 02:43:24;;;;;;;5.82;2.35;;;6.60;99.90;;;;;;5054396;28;20641;-62
2022/04/04 02:45:52;;;;;;;6.07;2.15;;;6.60;99.90;;;;;;5054379;28;20056;-61
2022/04/04 02:48:21;;;;;;;2.92;1.98;;;6.60;99.90;;;;;;5054398;28;20045;-62
2022/04/04 02:50:49;;;;;;;4.10;1.95;;;6.60;99.90;;;;;;5054151;28;20052;-62
2022/04/04 02:53:17;;;;;;;3.40;1.73;;;6.60;99.90;;;;;;5054167;28;20505;-63
2022/04/04 02:58:32;;;;;;;2.85;0.90;;;6.70;99.90;;;;;;5054955;28;20045;-62
2022/04/04 03:00:59;;;;;;;3.05;1.48;;;6.70;99.90;;;;;;5054640;28;20072;-63
2022/04/04 03:03:28;;;;;;;3.15;1.40;;;6.70;99.90;;;;;;5053744;28;20052;-63
2022/04/04 03:05:55;;;;;;;3.33;1.42;;;6.70;99.90;;;;;;5061667;28;20040;-62
2022/04/04 03:08:23;;;;;;;4.15;1.55;;;6.80;99.90;;;;;;5073929;28;20051;-62
2022/04/04 03:10:51;;;;;;;1.00;0.93;;;6.70;99.90;;;;;;5073987;28;20396;-64
2022/04/04 03:13:18;;;;;;;1.77;1.25;;;6.80;99.90;;;;;;5071340;28;20052;-62
2022/04/04 03:15:47;;;;;;;1.08;0.98;;;6.80;99.90;;;;;;5073640;28;20510;-65
2022/04/04 03:18:14;;;;;;;3.47;1.20;;;6.80;99.90;;;;;;5073743;28;20045;-63
2022/04/04 03:20:42;;;;;;;2.10;1.05;;;6.80;99.90;;;;;;5073472;28;20048;-64
2022/04/04 03:23:09;;;;;;;1.25;1.15;;;6.80;99.90;;;;;;5056446;28;20049;-63
2022/04/04 03:25:37;;;;;;;2.50;1.38;;;6.90;99.90;;;;;;5053508;28;20052;-62
2022/04/04 03:28:05;;;;;;;2.53;1.35;;;6.80;99.90;;;;;;5051853;28;20049;-64
2022/04/04 03:30:33;;;;;;;2.55;0.90;;;6.90;99.90;;;;;;5053393;28;20049;-63
2022/04/04 03:33:00;;;;;;;4.30;1.40;;;6.90;99.90;;;;;;5053487;28;20064;-62
2022/04/04 03:35:30;;;;;;;3.67;1.02;;;6.90;99.90;;;;;;5054356;28;20041;-61
2022/04/04 03:38:00;;;;;;;7.97;1.17;;;6.90;99.90;;;;;;5052039;28;20045;-62
2022/04/04 03:40:28;;;;;;;1.35;0.70;;;6.90;99.90;;;;;;5052103;28;20052;-63
2022/04/04 03:42:57;;;;;;;2.42;0.98;;;6.90;99.90;;;;;;5053289;28;20052;-61
2022/04/04 03:45:26;;;;;;;1.63;1.05;;;7.00;99.90;;;;;;5053995;28;20052;-62
2022/04/04 03:47:54;;;;;;;1.60;0.80;;;7.00;99.90;;;;;;5062622;28;20048;-62
2022/04/04 03:50:24;;;;;;;3.97;1.02;;;7.00;99.90;;;;;;5072678;28;20036;-62
2022/04/04 03:52:55;;;;;;;2.00;0.90;;;7.00;99.90;;;;;;5065232;28;20048;-65
2022/04/04 03:55:27;;;;;;;4.20;1.10;;;7.00;99.90;;;;;;5064653;28;20495;-62
2022/04/04 03:57:55;;;;;;;3.60;1.08;;;7.10;99.90;;;;;;5057137;28;20484;-62
2022/04/04 04:00:24;;;;;;;1.15;1.05;;;7.10;99.90;;;;;;5069679;28;20047;-63
2022/04/04 04:02:52;;;;;;;1.80;0.63;;;7.10;99.90;;;;;;5059998;28;20523;-62
2022/04/04 04:05:20;;;;;;;2.10;0.98;;;7.10;99.90;;;;;;5051440;28;20049;-62
2022/04/04 04:07:48;;;;;;;0.52;0.52;;;7.10;99.90;;;;;;5056644;28;20056;-62
2022/04/04 04:10:16;;;;;;;0.60;0.60;;;7.20;99.90;;;;;;5072613;28;20049;-62
2022/04/04 04:12:45;;;;;;;0.90;0.60;;;7.20;99.90;;;;;;5072650;28;20053;-63
2022/04/04 04:15:19;;;;;;;4.50;0.90;;;7.20;99.90;;;;;;5065498;28;20060;-62
2022/04/04 04:17:46;;;;;;;2.35;0.55;;;7.20;99.90;;;;;;5053556;28;20052;-63
2022/04/04 04:20:20;;;;;;;1.13;0.90;;;7.20;99.90;;;;;;5054471;28;20064;-62
2022/04/04 04:22:52;;;;;;;2.35;0.88;;;7.30;99.90;;;;;;5059999;28;20056;-62
2022/04/04 04:25:21;;;;;;;3.25;1.02;;;7.30;99.90;;;;;;5059596;28;20033;-62
2022/04/04 04:27:49;;;;;;;2.30;0.60;;;7.30;99.90;;;;;;5071248;28;20625;-62
2022/04/04 04:30:17;;;;;;;1.10;0.47;;;7.30;99.90;;;;;;5072162;28;20045;-62
2022/04/04 04:32:48;;;;;;;1.20;0.40;;;7.30;99.90;;;;;;5072306;28;20522;-62
2022/04/04 04:35:17;;;;;;;1.30;0.60;;;7.30;99.90;;;;;;5070448;28;20041;-62
2022/04/04 04:37:45;;;;;;;0.43;0.35;;;7.40;99.90;;;;;;5063617;28;20411;-61
2022/04/04 04:40:14;;;;;;;1.10;0.60;;;7.40;99.90;;;;;;5072104;28;20388;-61
2022/04/04 04:42:44;;;;;;;1.27;0.60;;;7.40;99.90;;;;;;5070323;28;20884;-60
2022/04/04 04:45:13;;;;;;;0.70;0.70;;;7.40;99.90;;;;;;5070762;28;20049;-61
2022/04/04 04:47:41;;;;;;;2.65;0.60;;;7.40;99.90;;;;;;5061606;28;20068;-62
2022/04/04 04:50:12;;;;;;;;;;;7.40;99.90;;;;;;5066974;28;20052;-61
2022/04/04 04:52:41;;;;;;;1.75;0.70;;;7.40;99.90;;;;;;5052955;28;19925;-62
2022/04/04 04:55:10;;;;;;;0.57;0.38;;;7.50;99.90;;;;;;5048367;28;20041;-61
2022/04/04 04:57:38;;;;;;;0.60;0.57;;;7.40;99.90;;;;;;5054280;28;20061;-62
2022/04/04 05:00:09;;;;;;;1.92;0.60;;;7.50;99.90;;;;;;5068199;28;20049;-62
2022/04/04 05:02:37;;;;;;;2.22;0.30;;;7.50;99.90;;;;;;5056861;28;20041;-62
2022/04/04 05:05:04;;;;;;;0.88;0.65;;;7.50;99.90;;;;;;5051942;28;20436;-63
2022/04/04 05:07:33;;;;;;;1.63;1.00;;;7.50;99.90;;;;;;5064217;28;20064;-63
2022/04/04 05:10:00;;;;;;;0.85;0.60;;;7.50;99.90;;;;;;5049408;28;20048;-62
2022/04/04 05:12:28;;;;;;;0.60;0.40;;;7.50;99.90;;;;;;5051114;28;20047;-60
2022/04/04 05:14:55;;;;;;;0.88;0.68;;;7.50;99.90;;;;;;5065214;28;20044;-62
2022/04/04 05:17:23;;;;;;;0.73;0.50;;;7.50;99.90;;;;;;5062712;28;20055;-61
2022/04/04 05:19:57;;;;;;;1.27;0.63;;;7.50;99.90;;;;;;5047419;28;20045;-61
2022/04/04 05:22:24;;;;;;;1.98;0.60;;;7.50;99.90;;;;;;5052290;28;20539;-61
2022/04/04 05:24:52;;;;;;;0.90;0.70;;;7.60;99.90;;;;;;5066896;28;20036;-61
2022/04/04 05:27:20;;;;;;;0.90;0.80;;;7.60;99.90;;;;;;5021355;28;20061;-60
2022/04/04 05:29:47;;;;;;;0.40;0.40;;;7.50;99.90;;;;;;5067011;28;20499;-61
2022/04/04 05:32:15;;;;;;;0.77;0.60;;;7.60;99.90;;;;;;5066118;28;20056;-60
2022/04/04 05:34:43;;;;;;;0.88;0.45;;;7.60;99.90;;;;;;5056431;28;20048;-61
2022/04/04 05:37:12;;;;;;;0.52;0.50;;;7.60;99.90;;;;;;5060807;28;20045;-62
2022/04/04 05:39:40;;;;;;;2.15;0.55;;;7.60;99.90;;;;;;5068000;28;20049;-61
2022/04/04 05:42:08;;;;;;;1.30;0.32;;;7.60;99.90;;;;;;5064074;28;20048;-61
2022/04/04 05:44:35;;;;;;;1.35;0.60;;;7.60;99.90;;;;;;5063807;28;20399;-61
2022/04/04 05:47:04;;;;;;;0.77;0.45;;;7.60;99.90;;;;;;5063530;28;20055;-62
2022/04/04 05:49:32;;;;;;;1.55;0.60;;;7.70;99.90;;;;;;5046588;28;20052;-61
2022/04/04 05:51:59;;;;;;;1.40;0.70;;;7.70;99.90;;;;;;5047219;28;20049;-61
2022/04/04 05:54:31;;;;;;;3.05;0.98;;;7.70;99.90;;;;;;5047798;28;20044;-63
2022/04/04 05:56:59;;;;;;;0.40;0.40;;;7.70;99.90;;;;;;5056996;28;20049;-61
2022/04/04 05:59:26;;;;;;;0.60;0.43;;;7.70;99.90;;;;;;5062142;28;20037;-62
2022/04/04 06:01:55;;;;;;;1.27;0.40;;;7.70;99.90;;;;;;5047149;28;20049;-61
2022/04/04 06:04:23;;;;;;;0.65;0.50;;;7.70;99.90;;;;;;5053905;28;20047;-63
2022/04/04 06:06:51;;;;;;;1.73;0.60;;;7.80;99.90;;;;;;5047285;28;20045;-63
2022/04/04 06:09:18;;;;;;;1.20;0.50;;;7.80;99.90;;;;;;5067462;28;20048;-62
2022/04/04 06:11:47;;;;;;;0.60;0.40;;;7.80;99.90;;;;;;5067921;28;20045;-62
2022/04/04 06:14:14;;;;;;;2.13;0.60;;;7.80;99.90;;;;;;5069393;28;20063;-61
2022/04/04 06:16:42;;;;;;;1.10;0.50;;;7.80;99.90;;;;;;5071443;28;20048;-61
2022/04/04 06:19:16;;;;;;;0.75;0.60;;;7.90;99.90;;;;;;5059684;28;20041;-60
2022/04/04 06:21:44;;;;;;;0.70;0.60;;;7.90;99.90;;;;;;5051550;28;20515;-62
2022/04/04 06:24:12;;;;;;;2.58;0.63;;;7.90;99.90;;;;;;5053919;28;20064;-61
2022/04/04 06:26:40;;;;;;;1.33;0.77;;;7.90;99.90;;;;;;5050309;28;20047;-61
2022/04/04 06:29:09;;;;;;;1.15;0.73;;;8.00;99.90;;;;;;5068649;28;20072;-62
2022/04/04 06:31:37;;;;;;;21.63;0.60;;;8.00;99.90;;;;;;5060165;28;20041;-60
2022/04/04 06:34:05;;;;;;;0.77;0.73;;;8.10;99.90;;;;;;5068843;28;20052;-60
2022/04/04 06:36:33;;;;;;;0.85;0.80;;;8.10;99.90;;;;;;5071430;28;20419;-60
2022/04/04 06:39:01;;;;;;;1.52;1.05;;;8.10;99.90;;;;;;5055105;28;20416;-60
2022/04/04 06:41:30;;;;;;;1.52;1.10;;;8.10;99.90;;;;;;5046794;28;20512;-60
2022/04/04 06:43:58;;;;;;;2.37;0.83;;;8.20;99.90;;;;;;5064693;28;20623;-60
2022/04/04 06:46:28;;;;;;;2.83;1.00;;;8.20;99.90;;;;;;5057235;28;20045;-60
2022/04/04 06:48:56;;;;;;;5.82;1.20;;;8.20;99.90;;;;;;5054171;28;20060;-60
2022/04/04 06:51:24;;;;;;;1.88;1.25;;;8.20;99.90;;;;;;5053820;28;20060;-60
2022/04/04 06:53:51;;;;;;;3.60;1.77;;;8.30;99.90;;;;;;5062028;28;20045;-60
2022/04/04 06:56:19;;;;;;;2.38;1.52;;;8.30;99.90;;;;;;5056730;28;20392;-60
2022/04/04 06:58:47;;;;;;;6.53;1.60;;;8.40;99.90;;;;;;5055987;28;20052;-60
2022/04/04 07:01:14;;;;;;;2.60;1.80;;;8.40;99.90;;;;;;5065932;28;20049;-59
2022/04/04 07:03:42;;;;;;;4.07;1.35;;;8.50;99.90;;;;;;5059626;28;20056;-61
2022/04/04 07:06:10;;;;;;;3.72;2.00;;;8.50;99.90;;;;;;5051026;28;20045;-60
2022/04/04 07:08:38;;;;;;;4.63;1.95;;;8.60;99.90;;;;;;5051271;28;20040;-60
2022/04/04 07:11:10;;;;;;;4.20;3.08;;;8.60;99.90;;;;;;5050101;28;20044;-61
2022/04/04 07:13:37;;;;;;;6.10;2.63;;;8.70;99.90;;;;;;5049897;28;20049;-60
2022/04/04 07:16:05;;;;;;;6.30;3.10;;;8.70;99.90;;;;;;5047242;28;20716;-60
2022/04/04 07:18:39;;;;;;;3.65;2.10;;;8.70;99.90;;;;;;5053055;28;20070;-60
2022/04/04 07:21:07;;;;;;;7.57;2.20;;;8.80;99.90;;;;;;5059884;28;21830;-59
2022/04/04 07:23:35;;;;;;;3.03;1.83;;;8.80;99.90;;;;;;5065225;28;20049;-60
2022/04/04 07:26:03;;;;;;;3.70;2.67;;;8.90;99.90;;;;;;5050725;28;20480;-60
2022/04/04 07:28:31;;;;;;;5.60;2.67;;;8.90;99.90;;;;;;5060812;28;20060;-59
2022/04/04 07:30:58;;;;;;;8.85;2.88;;;9.00;99.90;;;;;;5053484;28;20060;-61
2022/04/04 07:33:26;;;;;;;3.60;2.55;;;9.00;99.90;;;;;;5059911;28;20290;-60
2022/04/04 07:35:54;;;;;;;8.25;2.70;;;9.00;99.90;;;;;;5051365;28;20047;-60
2022/04/04 07:38:22;;;;;;;5.78;2.90;;;9.10;99.90;;;;;;5058928;28;20065;-60
2022/04/04 07:40:55;;;;;;;4.53;2.42;;;9.10;99.90;;;;;;5050572;28;20045;-60
2022/04/04 07:43:22;;;;;;;4.88;2.58;;;9.20;99.90;;;;;;5062907;28;20052;-60
2022/04/04 07:45:51;;;;;;;5.05;2.85;;;9.20;99.90;;;;;;5067749;28;20044;-60
2022/04/04 07:48:18;;;;;;;2.38;2.08;;;9.20;99.90;;;;;;5060190;28;20510;-61
2022/04/04 07:50:46;;;;;;;2.95;1.88;;;9.20;99.90;;;;;;5069160;28;20052;-60
2022/04/04 07:53:13;;;;;;;11.48;3.03;;;9.30;99.90;;;;;;5050778;28;20484;-63
2022/04/04 07:55:41;;;;;;;7.82;3.17;;;9.30;99.90;;;;;;5049898;28;20048;-61
2022/04/04 07:58:09;;;;;;;5.30;2.50;;;9.30;99.90;;;;;;5057165;28;20060;-63
2022/04/04 08:00:37;;;;;;;9.70;3.08;;;9.30;99.90;;;;;;5063355;28;20041;-61
2022/04/04 08:03:05;;;;;;;9.25;3.38;;;9.30;99.90;;;;;;5058263;28;20454;-61
2022/04/04 08:05:32;;;;;;;8.70;3.85;;;9.30;99.90;;;;;;5060308;28;20037;-61
2022/04/04 08:08:00;;;;;;;8.20;3.50;;;9.40;99.90;;;;;;5052833;28;20068;-62
2022/04/04 08:10:28;;;;;;;9.60;4.30;;;9.40;99.90;;;;;;5050915;28;20041;-63
2022/04/04 08:12:55;;;;;;;7.72;3.13;;;9.40;99.90;;;;;;5053421;28;20045;-60
2022/04/04 08:15:25;;;;;;;7.25;3.33;;;9.40;99.90;;;;;;5049162;28;20064;-64
2022/04/04 08:17:57;;;;;;;4.35;2.40;;;9.40;99.90;;;;;;5059676;28;20522;-62
2022/04/04 08:20:25;;;;;;;7.28;4.07;;;9.40;99.90;;;;;;5067710;28;20059;-60
2022/04/04 08:22:53;;;;;;;13.10;4.10;;;9.40;99.90;;;;;;5061358;28;20041;-64
2022/04/04 08:25:20;;;;;;;7.72;3.70;;;9.50;99.90;;;;;;5050369;28;20053;-64
2022/04/04 08:27:48;;;;;;;18.95;8.70;;;9.50;99.90;;;;;;5052951;28;20049;-65
2022/04/04 08:30:18;;;;;;;24.90;11.63;;;9.50;99.90;;;;;;5049095;28;20068;-63
2022/04/04 08:32:46;;;;;;;90.72;51.30;;;9.50;99.90;;;;;;5058506;28;20040;-61
2022/04/04 08:35:15;;;;;;;256.88;146.23;;;9.50;99.90;;;;;;5068404;28;20520;-61
2022/04/04 08:37:45;;;;;;;91.47;62.08;;;9.50;99.90;;;;;;5056745;28;20052;-63
2022/04/04 08:40:14;;;;;;;175.93;107.70;;;9.60;99.90;;;;;;5054978;28;20052;-60
2022/04/04 08:42:42;;;;;;;92.97;56.05;;;9.60;99.90;;;;;;5066911;28;20048;-65
2022/04/04 08:45:11;;;;;;;97.75;57.22;;;9.60;99.90;;;;;;5068702;28;20045;-62
2022/04/04 08:47:40;;;;;;;40.45;21.55;;;9.60;99.90;;;;;;5058012;28;20037;-62
2022/04/04 08:50:10;;;;;;;6.40;4.07;;;9.70;99.90;;;;;;5058878;28;20064;-60
2022/04/04 08:52:38;;;;;;;19.85;14.10;;;9.60;99.90;;;;;;5054271;28;20051;-62
2022/04/04 08:55:08;;;;;;;6.30;3.63;;;9.70;99.90;;;;;;5051494;28;20041;-61
2022/04/04 08:57:35;;;;;;;29.77;24.70;;;9.70;99.90;;;;;;5063763;28;20048;-60
2022/04/04 09:00:04;;;;;;;222.13;92.38;;;9.70;99.90;;;;;;5059114;28;20049;-60
2022/04/04 09:02:32;;;;;;;294.90;133.50;;;9.70;99.90;;;;;;5063479;28;20043;-60
2022/04/04 09:05:07;;;;;;;126.78;58.10;;;9.70;99.90;;;;;;5058643;28;20416;-62
2022/04/04 09:07:59;;;;;;;111.28;60.50;;;9.80;99.90;;;;;;5052056;28;20049;-60
2022/04/04 09:10:34;;;;;;;46.97;39.50;;;9.80;99.90;;;;;;5048545;28;20392;-60
2022/04/04 09:13:06;;;;;;;25.63;20.65;;;9.80;99.90;;;;;;5053300;28;20056;-62
2022/04/04 09:15:57;;;;;;;27.15;20.45;;;9.80;99.90;;;;;;5065322;28;20044;-60
2022/04/04 09:18:37;;;;;;;42.17;25.40;;;9.80;99.90;;;;;;5056250;28;20056;-61
2022/04/04 09:21:12;;;;;;;15.15;9.00;;;9.80;99.90;;;;;;5048791;28;20037;-63
2022/04/04 09:23:46;;;;;;;6.90;5.38;;;9.80;99.90;;;;;;5056916;28;20048;-61
2022/04/04 09:26:41;;;;;;;19.30;16.30;;;9.80;99.90;;;;;;5066639;28;20040;-61
2022/04/04 09:29:22;;;;;;;8.00;4.72;;;9.90;99.90;;;;;;5063976;28;20056;-64
2022/04/04 09:32:05;;;;;;;14.88;10.77;;;9.90;99.90;;;;;;5054983;28;20048;-65
2022/04/04 09:34:56;;;;;;;13.52;8.05;;;9.80;99.90;;;;;;5054130;28;20049;-66
2022/04/04 09:37:24;;;;;;;5.68;1.77;;;9.90;99.90;;;;;;5060589;28;20040;-63
2022/04/04 09:40:03;;;;;;;4.53;2.45;;;9.80;99.90;;;;;;5052195;28;20405;-60
2022/04/04 09:42:42;;;;;;;3.13;1.77;;;9.90;99.90;;;;;;5054348;28;20041;-60
2022/04/04 09:45:12;;;;;;;4.07;1.73;;;9.90;99.90;;;;;;5059761;28;20064;-60
2022/04/04 09:47:54;;;;;;;8.57;2.05;;;9.90;99.90;;;;;;5055358;28;20511;-60
2022/04/04 09:50:45;;;;;;;2.83;2.15;;;9.90;99.90;;;;;;5064928;28;20037;-61
2022/04/04 09:53:28;;;;;;;10.30;1.88;;;9.90;99.90;;;;;;5054318;28;20052;-60
2022/04/04 09:55:57;;;;;;;4.28;2.75;;;10.00;99.90;;;;;;5072112;28;20045;-60
2022/04/04 09:58:28;;;;;;;5.18;3.35;;;10.00;99.90;;;;;;5064257;28;20056;-61
2022/04/04 10:00:58;;;;;;;3.15;2.10;;;10.00;99.90;;;;;;5071834;28;20056;-60
2022/04/04 10:03:29;;;;;;;3.65;2.45;;;10.00;99.90;;;;;;5066593;28;20040;-60
2022/04/04 10:06:09;;;;;;;3.25;1.50;;;10.00;99.90;;;;;;5068356;28;20079;-59
2022/04/04 10:08:38;;;;;;;3.33;1.65;;;10.00;99.90;;;;;;5059606;28;20052;-60
2022/04/04 10:11:09;;;;;;;1.90;0.88;;;10.00;99.90;;;;;;5067150;28;20040;-60
2022/04/04 10:13:37;;;;;;;4.95;1.45;;;10.10;99.90;;;;;;5069968;28;20459;-60
2022/04/04 10:16:05;;;;;;;6.47;2.13;;;10.10;99.90;;;;;;5056010;28;20052;-60
2022/04/04 10:18:35;;;;;;;2.78;1.00;;;10.10;99.90;;;;;;5067284;28;20052;-60
2022/04/04 10:21:04;;;;;;;5.78;1.75;;;10.20;99.90;;;;;;5070274;28;20063;-61
2022/04/04 10:23:33;;;;;;;2.97;1.48;;;10.20;99.90;;;;;;5062854;28;20036;-60
2022/04/04 10:26:02;;;;;;;4.97;2.28;;;10.20;99.90;;;;;;5053232;28;20045;-61
2022/04/04 10:28:33;;;;;;;5.38;2.42;;;10.20;99.90;;;;;;5062618;28;20048;-60
2022/04/04 10:31:10;;;;;;;5.53;1.73;;;10.20;99.90;;;;;;5065915;28;20212;-60
2022/04/04 10:33:38;;;;;;;6.97;2.10;;;10.30;99.90;;;;;;5058631;28;20036;-60
2022/04/04 10:36:23;;;;;;;3.78;2.42;;;10.30;99.90;;;;;;5052510;28;20057;-64
2022/04/04 10:38:54;;;;;;;2.03;1.67;;;10.30;99.90;;;;;;5052823;28;20045;-61
2022/04/04 10:41:30;;;;;;;2.25;2.00;;;10.30;99.90;;;;;;5054382;28;20052;-61
2022/04/04 10:43:58;;;;;;;1.73;1.17;;;10.40;99.90;;;;;;5060648;28;20068;-60
2022/04/04 10:46:26;;;;;;;3.28;1.30;;;10.40;99.90;;;;;;5063184;28;20063;-61
2022/04/04 10:48:59;;;;;;;5.65;1.90;;;10.40;99.90;;;;;;5069276;28;20040;-60
2022/04/04 10:51:28;;;;;;;4.45;1.70;;;10.50;99.90;;;;;;5065624;28;20041;-60
2022/04/04 10:54:00;;;;;;;1.95;1.50;;;10.50;99.90;;;;;;5053461;28;20041;-61
2022/04/04 10:56:36;;;;;;;2.35;1.23;;;10.50;99.90;;;;;;5050632;28;20068;-61
2022/04/04 10:59:16;;;;;;;2.88;1.55;;;10.50;99.90;;;;;;5065867;28;20048;-61
2022/04/04 11:01:45;;;;;;;;;;;10.60;99.90;;;;;;5059123;28;20057;-62
2022/04/04 11:04:26;;;;;;;6.80;1.73;;;10.60;99.90;;;;;;5060504;28;19920;-61
2022/04/04 11:07:40;;;;;;;4.28;1.67;;;10.60;99.90;;;;;;5054044;28;20392;-62
2022/04/04 11:10:09;;;;;;;1.70;1.33;;;10.70;99.90;;;;;;5055792;28;20040;-65
2022/04/04 11:12:56;;;;;;;2.45;1.30;;;10.70;99.90;;;;;;5057689;28;20043;-61
2022/04/04 11:15:48;;;;;;;4.55;2.15;;;10.80;99.90;;;;;;5070404;28;20041;-61
2022/04/04 11:18:16;;;;;;;2.50;1.40;;;10.90;99.90;;;;;;5068883;28;20041;-60
2022/04/04 11:20:50;;;;;;;2.50;1.08;;;10.90;99.90;;;;;;5053927;28;20408;-61
2022/04/04 11:23:20;;;;;;;2.13;1.02;;;11.00;99.90;;;;;;5060337;28;20036;-61
2022/04/04 11:25:52;;;;;;;1.92;1.33;;;11.00;99.90;;;;;;5052276;28;20047;-62
2022/04/04 11:28:24;;;;;;;1.38;1.10;;;11.00;99.90;;;;;;5054675;28;20041;-61
2022/04/04 11:30:53;;;;;;;4.72;2.03;;;11.00;99.90;;;;;;5046908;28;20045;-62
2022/04/04 11:33:26;;;;;;;10.95;4.60;;;11.00;99.90;;;;;;5060522;28;20037;-61
2022/04/04 11:35:54;;;;;;;21.00;6.47;;;11.00;99.90;;;;;;5070127;28;20041;-63
2022/04/04 11:38:22;;;;;;;13.05;4.10;;;11.00;99.90;;;;;;5051491;28;20067;-66
2022/04/04 11:41:01;;;;;;;11.25;4.40;;;11.00;99.90;;;;;;5050822;28;20056;-62
2022/04/04 11:43:31;;;;;;;7.90;2.85;;;11.10;99.90;;;;;;5050013;28;20049;-62
2022/04/04 11:46:01;;;;;;;13.65;3.72;;;11.20;99.90;;;;;;5050877;28;20488;-67
2022/04/04 11:48:31;;;;;;;3.38;2.47;;;11.30;99.90;;;;;;5058367;28;20416;-63
2022/04/04 11:50:58;;;;;;;2.05;1.45;;;11.40;99.90;;;;;;5058977;28;20412;-65
2022/04/04 11:53:27;;;;;;;1.77;1.33;;;11.50;99.90;;;;;;5066202;28;20048;-61
2022/04/04 11:56:03;;;;;;;1.35;0.70;;;11.60;99.90;;;;;;5054006;28;20041;-61
2022/04/04 11:58:37;;;;;;;3.10;0.85;;;11.60;99.90;;;;;;5061744;28;20044;-61
2022/04/04 12:01:06;;;;;;;1.23;0.98;;;11.70;99.90;;;;;;5057833;28;20041;-63
2022/04/04 12:03:40;;;;;;;3.40;0.73;;;11.70;99.90;;;;;;5066625;28;20048;-62
2022/04/04 12:06:08;;;;;;;1.13;0.80;;;11.80;99.90;;;;;;5053283;28;20043;-62
2022/04/04 12:08:42;;;;;;;2.20;0.90;;;11.70;99.90;;;;;;5068659;28;20044;-66
2022/04/04 12:11:10;;;;;;;2.35;0.82;;;11.80;99.90;;;;;;5055461;28;20119;-64
2022/04/04 12:13:57;;;;;;;2.20;0.80;;;11.80;99.90;;;;;;5060422;28;20044;-67
2022/04/04 12:16:25;;;;;;;1.90;0.55;;;11.70;99.90;;;;;;5063867;28;20052;-64
2022/04/04 12:18:54;;;;;;;0.28;0.28;;;11.70;99.90;;;;;;5068462;28;20078;-63
2022/04/04 12:21:22;;;;;;;1.48;0.50;;;11.60;99.90;;;;;;5068622;28;20044;-67
2022/04/04 12:26:39;;;;;;;1.55;0.82;;;11.50;99.90;;;;;;5051465;28;20052;-62
2022/04/04 12:29:11;;;;;;;1.98;0.90;;;11.50;99.90;;;;;;5063222;28;20044;-62
2022/04/04 12:31:56;;;;;;;2.45;0.98;;;11.50;99.90;;;;;;5048475;28;20056;-62
2022/04/04 12:34:24;;;;;;;2.50;1.00;;;11.50;99.90;;;;;;5062998;28;20045;-62
2022/04/04 12:36:59;;;;;;;3.28;0.90;;;11.50;99.90;;;;;;5056478;28;20040;-61
2022/04/04 12:39:27;;;;;;;5.53;1.30;;;11.50;99.90;;;;;;5064916;28;20051;-63
2022/04/04 12:41:55;;;;;;;2.03;0.80;;;11.40;99.90;;;;;;5050910;28;20053;-61
2022/04/04 12:44:25;;;;;;;2.63;1.00;;;11.40;99.90;;;;;;5056021;28;20395;-62
2022/04/04 12:47:06;;;;;;;;;;;11.40;99.90;;;;;;5062010;28;20053;-62
2022/04/04 12:49:33;;;;;;;3.25;1.38;;;11.40;99.90;;;;;;5065886;28;19925;-62
2022/04/04 12:52:21;;;;;;;1.58;0.73;;;11.30;99.90;;;;;;5056840;28;20044;-62
2022/04/04 12:54:49;;;;;;;2.70;0.82;;;11.30;99.90;;;;;;5059046;28;20048;-61
2022/04/04 12:57:27;;;;;;;3.10;0.90;;;11.30;99.90;;;;;;5049394;28;20049;-61
2022/04/04 12:59:57;;;;;;;3.50;0.90;;;11.20;99.90;;;;;;5067577;28;20040;-61
2022/04/04 13:02:33;;;;;;;3.90;1.00;;;11.20;99.90;;;;;;5054235;28;20063;-62
2022/04/04 13:05:15;;;;;;;3.97;0.93;;;11.20;99.90;;;;;;5063880;28;20041;-60
2022/04/04 13:07:55;;;;;;;3.42;0.82;;;11.20;99.90;;;;;;5067628;28;20372;-62
2022/04/04 13:10:26;;;;;;;2.40;0.98;;;11.20;99.90;;;;;;5055080;28;20051;-60
2022/04/04 13:13:11;;;;;;;2.25;0.93;;;11.20;99.90;;;;;;5062283;28;20487;-61
2022/04/04 13:15:40;;;;;;;1.02;0.90;;;11.30;99.90;;;;;;5048258;28;20052;-61
2022/04/04 13:18:10;;;;;;;1.48;1.10;;;11.30;99.90;;;;;;5064140;28;20404;-61